createdAt,value
2023-04-16T00:01:23.733Z,23.98
2023-04-16T00:04:27.927Z,22.95
2023-04-16T00:07:32.444Z,24.08
2023-04-16T00:10:37.071Z,23.52
2023-04-16T00:13:41.649Z,24.27
2023-04-16T00:19:50.706Z,23.65
2023-04-16T00:22:55.014Z,24.98
2023-04-16T00:26:00.149Z,23.00
2023-04-16T00:29:05.526Z,24.50
2023-04-16T00:32:09.854Z,23.58
2023-04-16T00:38:18.413Z,23.75
2023-04-16T00:41:23.316Z,23.90
2023-04-16T00:44:27.572Z,22.42
2023-04-16T00:47:32.224Z,25.05
2023-04-16T00:50:36.421Z,23.02
2023-04-16T00:53:40.928Z,23.50
2023-04-16T00:56:45.652Z,24.65
2023-04-16T00:59:50.347Z,23.63
2023-04-16T01:02:55.594Z,23.83
2023-04-16T01:06:00.956Z,25.70
2023-04-16T01:09:05.878Z,24.55
2023-04-16T01:12:10.068Z,25.17
2023-04-16T01:15:14.391Z,25.13
2023-04-16T01:18:21.147Z,26.35
2023-04-16T01:21:26.525Z,24.13
2023-04-16T01:24:31.211Z,25.95
2023-04-16T01:27:35.477Z,24.45
2023-04-16T01:30:39.759Z,23.65
2023-04-16T01:33:43.990Z,22.95
2023-04-16T01:36:48.328Z,24.80
2023-04-16T01:39:52.759Z,26.00
2023-04-16T01:42:56.976Z,24.00
2023-04-16T01:46:29.333Z,23.45
2023-04-16T01:49:35.998Z,22.52
2023-04-16T01:52:40.491Z,24.15
2023-04-16T01:58:48.423Z,23.00
2023-04-16T02:01:53.116Z,23.77
2023-04-16T02:04:58.181Z,23.63
2023-04-16T02:08:02.949Z,22.63
2023-04-16T02:11:07.350Z,24.13
2023-04-16T02:14:11.402Z,23.50
2023-04-16T02:17:15.922Z,25.40
2023-04-16T02:20:20.400Z,23.15
2023-04-16T02:23:24.671Z,24.55
2023-04-16T02:26:29.689Z,22.95
2023-04-16T02:29:33.978Z,22.38
2023-04-16T02:32:38.165Z,23.88
2023-04-16T02:35:43.014Z,23.52
2023-04-16T02:38:47.297Z,24.38
2023-04-16T02:41:52.408Z,23.83
2023-04-16T02:44:56.533Z,23.08
2023-04-16T02:48:00.793Z,24.23
2023-04-16T02:51:05.422Z,23.80
2023-04-16T02:54:10.310Z,23.30
2023-04-16T02:57:14.585Z,25.63
2023-04-16T03:00:19.651Z,24.70
2023-04-16T03:03:24.280Z,23.45
2023-04-16T03:06:28.563Z,24.50
2023-04-16T03:09:32.894Z,24.40
2023-04-16T03:12:37.558Z,22.38
2023-04-16T03:15:41.943Z,23.23
2023-04-16T03:18:46.129Z,22.42
2023-04-16T03:21:50.401Z,23.75
2023-04-16T03:24:55.016Z,24.20
2023-04-16T03:27:59.656Z,23.13
2023-04-16T03:31:04.064Z,22.23
2023-04-16T03:34:08.097Z,23.50
2023-04-16T03:37:12.422Z,23.23
2023-04-16T03:40:16.772Z,24.35
2023-04-16T03:43:21.170Z,24.55
2023-04-16T03:46:25.358Z,23.08
2023-04-16T03:52:33.833Z,21.88
2023-04-16T03:55:38.343Z,22.85
2023-04-16T03:58:42.656Z,23.48
2023-04-16T04:01:46.964Z,23.88
2023-04-16T04:04:51.335Z,23.50
2023-04-16T04:07:56.021Z,23.50
2023-04-16T04:11:00.723Z,24.25
2023-04-16T04:14:05.701Z,24.70
2023-04-16T04:17:10.019Z,23.65
2023-04-16T04:20:14.082Z,25.48
2023-04-16T04:29:27.445Z,24.52
2023-04-16T04:32:32.279Z,25.00
2023-04-16T04:35:36.662Z,24.38
2023-04-16T04:38:40.905Z,24.65
2023-04-16T04:41:45.113Z,25.52
2023-04-16T04:44:49.466Z,23.30
2023-04-16T04:47:53.920Z,25.98
2023-04-16T04:50:58.382Z,25.63
2023-04-16T04:54:02.753Z,24.52
2023-04-16T04:57:07.732Z,24.85
2023-04-16T05:00:12.338Z,23.40
2023-04-16T05:03:21.572Z,23.88
2023-04-16T05:06:28.385Z,23.83
2023-04-16T05:09:33.790Z,24.38
2023-04-16T05:12:37.831Z,24.15
2023-04-16T05:15:42.176Z,24.63
2023-04-16T05:18:46.419Z,23.95
2023-04-16T05:21:51.021Z,24.75
2023-04-16T05:24:55.587Z,24.92
2023-04-16T05:28:00.001Z,24.77
2023-04-16T05:31:04.628Z,24.77
2023-04-16T05:34:09.211Z,23.83
2023-04-16T05:37:13.385Z,23.95
2023-04-16T05:40:17.655Z,22.67
2023-04-16T05:43:21.953Z,23.80
2023-04-16T05:49:30.696Z,23.10
2023-04-16T05:52:34.928Z,21.10
2023-04-16T05:55:39.167Z,21.95
2023-04-16T05:58:43.402Z,21.80
2023-04-16T06:01:47.372Z,23.02
2023-04-16T06:04:51.593Z,23.13
2023-04-16T06:07:56.369Z,22.23
2023-04-16T06:11:01.009Z,21.00
2023-04-16T06:14:05.384Z,21.90
2023-04-16T06:17:09.557Z,22.92
2023-04-16T06:20:14.302Z,21.98
2023-04-16T06:23:18.642Z,21.35
2023-04-16T06:26:23.205Z,22.63
2023-04-16T06:29:36.927Z,23.13
2023-04-16T06:32:46.504Z,21.17
2023-04-16T06:35:50.964Z,20.65
2023-04-16T06:38:55.470Z,21.02
2023-04-16T06:41:59.938Z,21.27
2023-04-16T06:48:08.462Z,20.90
2023-04-16T06:51:13.261Z,20.02
2023-04-16T06:54:18.853Z,21.55
2023-04-16T06:57:23.373Z,21.42
2023-04-16T07:00:27.852Z,20.45
2023-04-16T07:03:32.271Z,21.15
2023-04-16T07:06:36.821Z,19.65
2023-04-16T07:09:41.094Z,20.05
2023-04-16T07:12:45.614Z,18.77
2023-04-16T07:15:49.953Z,21.13
2023-04-16T07:18:54.340Z,19.77
2023-04-16T07:22:02.597Z,20.38
2023-04-16T07:25:07.786Z,19.95
2023-04-16T07:28:12.368Z,20.50
2023-04-16T07:31:16.611Z,19.55
2023-04-16T07:34:20.875Z,19.05
2023-04-16T07:37:25.386Z,18.90
2023-04-16T07:40:29.907Z,17.58
2023-04-16T07:43:33.903Z,18.52
2023-04-16T07:46:46.241Z,19.45
2023-04-16T07:49:51.459Z,17.37
2023-04-16T07:52:55.865Z,18.25
2023-04-16T07:56:00.162Z,16.65
2023-04-16T07:59:19.140Z,18.83
2023-04-16T08:02:27.401Z,17.13
2023-04-16T08:05:32.179Z,18.50
2023-04-16T08:08:36.229Z,17.30
2023-04-16T08:11:40.671Z,17.58
2023-04-16T08:14:45.847Z,17.67
2023-04-16T08:17:50.376Z,18.38
2023-04-16T08:20:55.314Z,17.17
2023-04-16T08:23:59.442Z,17.27
2023-04-16T08:27:17.303Z,17.73
2023-04-16T08:30:23.766Z,17.38
2023-04-16T08:33:28.542Z,16.75
2023-04-16T08:36:33.052Z,15.95
2023-04-16T08:39:37.759Z,16.02
2023-04-16T08:42:54.083Z,16.45
2023-04-16T08:45:59.159Z,15.68
2023-04-16T08:49:07.223Z,16.45
2023-04-16T08:52:20.290Z,15.68
2023-04-16T08:55:38.422Z,15.18
2023-04-16T08:58:43.199Z,16.38
2023-04-16T09:01:49.113Z,15.35
2023-04-16T09:04:55.694Z,16.27
2023-04-16T09:08:00.063Z,16.60
2023-04-16T09:11:06.144Z,16.25
2023-04-16T09:14:12.166Z,15.88
2023-04-16T09:17:18.262Z,15.32
2023-04-16T09:20:23.188Z,16.80
2023-04-16T09:23:28.199Z,16.15
2023-04-16T09:26:33.315Z,15.68
2023-04-16T09:29:41.916Z,15.60
2023-04-16T09:32:46.815Z,16.63
2023-04-16T09:35:54.350Z,15.60
2023-04-16T09:39:00.127Z,15.27
2023-04-16T09:42:06.219Z,15.95
2023-04-16T09:45:11.372Z,15.82
2023-04-16T09:48:15.702Z,15.15
2023-04-16T09:51:19.973Z,17.10
2023-04-16T09:54:26.352Z,17.13
2023-04-16T09:57:30.805Z,16.27
2023-04-16T10:00:35.163Z,16.73
2023-04-16T10:03:51.025Z,16.42
2023-04-16T10:07:13.674Z,15.90
2023-04-16T10:10:18.228Z,15.55
2023-04-16T10:13:22.443Z,15.85
2023-04-16T10:16:27.422Z,15.82
2023-04-16T10:19:32.929Z,16.23
2023-04-16T10:22:37.753Z,16.30
2023-04-16T10:25:45.008Z,15.32
2023-04-16T10:28:50.192Z,16.23
2023-04-16T10:31:56.758Z,15.73
2023-04-16T10:35:01.795Z,16.60
2023-04-16T10:38:27.278Z,15.50
2023-04-16T10:41:33.578Z,15.90
2023-04-16T10:44:39.990Z,15.07
2023-04-16T10:47:46.483Z,15.52
2023-04-16T10:54:12.598Z,15.68
2023-04-16T10:57:19.887Z,16.48
2023-04-16T11:00:24.435Z,16.30
2023-04-16T11:03:32.499Z,15.60
2023-04-16T11:06:37.770Z,15.95
2023-04-16T11:09:52.737Z,15.70
2023-04-16T11:12:57.438Z,15.80
2023-04-16T11:16:02.545Z,15.30
2023-04-16T11:19:06.798Z,15.23
2023-04-16T11:22:17.338Z,14.45
2023-04-16T11:25:25.133Z,15.40
2023-04-16T11:28:34.252Z,15.20
2023-04-16T11:31:39.146Z,15.68
2023-04-16T11:34:45.866Z,15.27
2023-04-16T11:37:56.975Z,16.52
2023-04-16T11:41:01.572Z,15.32
2023-04-16T11:44:22.386Z,16.80
2023-04-16T11:47:27.635Z,15.70
2023-04-16T11:50:32.249Z,17.30
2023-04-16T11:53:44.936Z,16.40
2023-04-16T11:56:52.220Z,16.45
2023-04-16T12:00:02.165Z,15.93
2023-04-16T12:03:07.798Z,16.10
2023-04-16T12:06:12.553Z,15.10
2023-04-16T12:09:27.297Z,17.08
2023-04-16T12:12:32.533Z,16.05
2023-04-16T12:15:47.712Z,14.98
2023-04-16T12:19:04.106Z,15.98
2023-04-16T12:22:08.823Z,14.00
2023-04-16T12:25:18.063Z,14.68
2023-04-16T12:28:38.279Z,14.68
2023-04-16T12:31:42.731Z,15.10
2023-04-16T12:34:51.688Z,14.07
2023-04-16T12:37:57.514Z,14.48
2023-04-16T12:41:04.460Z,14.18
2023-04-16T12:44:12.548Z,14.50
2023-04-16T12:47:17.100Z,14.15
2023-04-16T12:53:26.119Z,13.43
2023-04-16T12:56:31.119Z,15.20
2023-04-16T12:59:35.353Z,15.07
2023-04-16T13:02:39.946Z,13.07
2023-04-16T13:05:44.989Z,14.23
2023-04-16T13:08:49.496Z,14.45
2023-04-16T13:11:53.730Z,15.05
2023-04-16T13:14:59.029Z,14.25
2023-04-16T13:18:04.119Z,14.18
2023-04-16T13:21:08.644Z,14.68
2023-04-16T13:24:13.180Z,14.10
2023-04-16T13:27:17.959Z,15.75
2023-04-16T13:30:22.418Z,15.13
2023-04-16T13:33:27.316Z,14.93
2023-04-16T13:36:33.047Z,15.23
2023-04-16T13:39:37.308Z,14.93
2023-04-16T13:42:41.506Z,15.65
2023-04-16T13:45:48.834Z,14.68
2023-04-16T13:48:53.434Z,14.45
2023-04-16T13:51:57.975Z,14.65
2023-04-16T13:55:03.783Z,14.65
2023-04-16T13:58:08.390Z,14.15
2023-04-16T14:01:13.101Z,14.85
2023-04-16T14:04:17.464Z,14.48
2023-04-16T14:07:27.624Z,14.27
2023-04-16T14:10:32.885Z,14.57
2023-04-16T14:13:37.433Z,14.65
2023-04-16T14:16:42.045Z,14.38
2023-04-16T14:19:47.148Z,14.40
2023-04-16T14:22:51.676Z,14.32
2023-04-16T14:25:56.834Z,15.50
2023-04-16T14:29:01.238Z,14.15
2023-04-16T14:32:06.780Z,14.32
2023-04-16T14:35:11.603Z,13.43
2023-04-16T14:38:15.903Z,14.98
2023-04-16T14:41:21.363Z,14.80
2023-04-16T14:44:25.610Z,15.00
2023-04-16T14:47:29.822Z,15.27
2023-04-16T14:50:38.934Z,15.98
2023-04-16T14:53:43.774Z,15.05
2023-04-16T14:56:50.005Z,15.32
2023-04-16T14:59:58.356Z,15.77
2023-04-16T15:03:03.058Z,15.95
2023-04-16T15:06:08.686Z,15.57
2023-04-16T15:09:13.473Z,15.35
2023-04-16T15:12:19.162Z,15.38
2023-04-16T15:15:23.600Z,15.70
2023-04-16T15:18:29.254Z,15.90
2023-04-16T15:21:33.497Z,16.70
2023-04-16T15:24:39.968Z,15.80
2023-04-16T15:27:44.549Z,14.50
2023-04-16T15:30:48.811Z,16.20
2023-04-16T15:36:57.362Z,16.55
2023-04-16T15:40:01.867Z,15.18
2023-04-16T15:43:06.856Z,16.73
2023-04-16T15:46:11.408Z,16.70
2023-04-16T15:49:16.383Z,15.65
2023-04-16T15:52:20.807Z,16.20
2023-04-16T15:55:26.436Z,16.67
2023-04-16T15:58:30.782Z,15.50
2023-04-16T16:01:35.032Z,17.10
2023-04-16T16:07:51.926Z,16.58
2023-04-16T16:10:56.989Z,17.30
2023-04-16T16:14:01.740Z,16.45
2023-04-16T16:17:05.937Z,14.77
2023-04-16T16:20:10.561Z,16.80
2023-04-16T16:23:15.508Z,16.52
2023-04-16T16:26:22.880Z,16.52
2023-04-16T16:29:27.681Z,15.60
2023-04-16T16:32:31.982Z,17.45
2023-04-16T16:38:41.234Z,15.35
2023-04-16T16:41:45.764Z,16.58
2023-04-16T16:44:50.150Z,16.55
2023-04-16T16:47:55.461Z,16.55
2023-04-16T16:50:59.737Z,16.75
2023-04-16T16:57:13.637Z,16.80
2023-04-16T17:00:20.114Z,16.73
2023-04-16T17:03:24.331Z,16.98
2023-04-16T17:06:29.292Z,17.08
2023-04-16T17:09:33.834Z,16.65
2023-04-16T17:12:37.939Z,16.45
2023-04-16T17:15:42.462Z,17.05
2023-04-16T17:18:47.187Z,16.83
2023-04-16T17:21:52.028Z,16.98
2023-04-16T17:24:56.337Z,15.63
2023-04-16T17:28:02.276Z,17.50
2023-04-16T17:31:08.467Z,16.73
2023-04-16T17:34:13.162Z,17.05
2023-04-16T17:37:17.587Z,16.35
2023-04-16T17:40:22.353Z,17.75
2023-04-16T17:43:28.195Z,17.00
2023-04-16T17:46:32.856Z,16.08
2023-04-16T17:49:37.801Z,17.58
2023-04-16T17:52:41.991Z,17.63
2023-04-16T17:55:56.034Z,16.48
2023-04-16T17:59:26.565Z,18.00
2023-04-16T18:02:31.029Z,17.80
2023-04-16T18:05:35.792Z,17.55
2023-04-16T18:08:41.363Z,16.48
2023-04-16T18:11:45.693Z,17.63
2023-04-16T18:14:50.800Z,16.13
2023-04-16T18:17:55.231Z,21.83
2023-04-16T18:20:59.971Z,19.20
2023-04-16T18:24:05.414Z,17.20
2023-04-16T18:27:09.969Z,17.30
2023-04-16T18:30:23.493Z,18.30
2023-04-16T18:33:44.388Z,19.73
2023-04-16T18:36:56.681Z,19.02
2023-04-16T18:40:00.833Z,18.27
2023-04-16T18:43:06.214Z,19.02
2023-04-16T18:46:11.006Z,20.50
2023-04-16T18:49:15.639Z,20.17
2023-04-16T18:52:19.768Z,21.95
2023-04-16T18:58:28.436Z,19.58
2023-04-16T19:01:32.711Z,19.63
2023-04-16T19:04:38.145Z,18.73
2023-04-16T19:07:43.204Z,20.20
2023-04-16T19:13:52.730Z,20.75
2023-04-16T19:16:57.023Z,20.60
2023-04-16T19:20:02.556Z,20.40
2023-04-16T19:23:09.218Z,20.15
2023-04-16T19:26:13.561Z,21.55
2023-04-16T19:29:18.061Z,20.92
2023-04-16T19:32:22.535Z,23.90
2023-04-16T19:35:27.132Z,25.13
2023-04-16T19:38:32.021Z,24.45
2023-04-16T19:41:36.238Z,22.45
2023-04-16T19:44:40.767Z,23.33
2023-04-16T19:47:45.070Z,21.42
2023-04-16T19:50:49.308Z,22.20
2023-04-16T19:53:53.813Z,22.42
2023-04-16T19:56:58.023Z,22.38
2023-04-16T20:00:02.896Z,23.05
2023-04-16T20:03:07.131Z,22.52
2023-04-16T20:06:11.317Z,21.00
2023-04-16T20:09:18.502Z,22.95
2023-04-16T20:12:23.020Z,21.52
2023-04-16T20:15:27.290Z,22.13
2023-04-16T20:18:31.921Z,21.58
2023-04-16T20:21:36.199Z,21.42
2023-04-16T20:24:40.785Z,21.45
2023-04-16T20:27:45.289Z,21.77
2023-04-16T20:30:50.894Z,23.45
2023-04-16T20:33:55.825Z,21.15
2023-04-16T20:37:00.122Z,21.80
2023-04-16T20:40:09.527Z,21.73
2023-04-16T20:43:14.094Z,22.15
2023-04-16T20:46:18.438Z,22.63
2023-04-16T20:49:22.879Z,22.33
2023-04-16T20:52:27.209Z,22.70
2023-04-16T20:55:31.518Z,22.13
2023-04-16T21:01:40.212Z,22.83
2023-04-16T21:04:45.073Z,22.25
2023-04-16T21:07:49.486Z,23.27
2023-04-16T21:10:53.641Z,22.80
2023-04-16T21:13:57.852Z,23.17
2023-04-16T21:17:02.372Z,22.85
2023-04-16T21:20:10.616Z,23.55
2023-04-16T21:23:15.003Z,23.33
2023-04-16T21:26:19.263Z,22.30
2023-04-16T21:29:23.595Z,23.35
2023-04-16T21:32:28.232Z,22.70
2023-04-16T21:35:33.416Z,24.27
2023-04-16T21:38:38.011Z,23.25
2023-04-16T21:41:42.326Z,23.15
2023-04-16T21:44:46.598Z,23.05
2023-04-16T21:47:50.920Z,22.30
2023-04-16T21:51:00.135Z,22.38
2023-04-16T21:54:05.075Z,22.42
2023-04-16T21:57:09.277Z,23.98
2023-04-16T22:00:14.404Z,22.48
2023-04-16T22:03:19.546Z,23.60
2023-04-16T22:06:24.028Z,23.58
2023-04-16T22:09:28.430Z,23.45
2023-04-16T22:12:32.832Z,23.73
2023-04-16T22:15:37.102Z,23.35
2023-04-16T22:18:41.887Z,26.45
2023-04-16T22:21:47.468Z,25.20
2023-04-16T22:24:52.221Z,25.77
2023-04-16T22:27:56.778Z,26.50
2023-04-16T22:31:02.053Z,26.75
2023-04-16T22:34:06.381Z,27.55
2023-04-16T22:37:10.793Z,27.65
2023-04-16T22:40:15.946Z,28.55
2023-04-16T22:43:20.458Z,29.60
2023-04-16T22:46:26.192Z,30.48
2023-04-16T22:49:33.158Z,29.08
2023-04-16T22:52:37.877Z,29.70
2023-04-16T22:55:42.166Z,29.60
2023-04-16T22:58:51.542Z,29.70
2023-04-16T23:01:55.899Z,30.83
2023-04-16T23:05:00.919Z,30.90
2023-04-16T23:08:06.050Z,28.33
2023-04-16T23:11:10.514Z,27.42
2023-04-16T23:14:16.820Z,31.52
2023-04-16T23:17:21.525Z,29.52
2023-04-16T23:20:25.911Z,32.08
2023-04-16T23:23:30.329Z,30.08
2023-04-16T23:26:34.707Z,30.17
2023-04-16T23:29:38.846Z,29.88
2023-04-16T23:35:47.922Z,30.75
2023-04-16T23:38:52.563Z,32.58
2023-04-16T23:41:57.538Z,31.65
2023-04-16T23:45:02.582Z,30.88
2023-04-16T23:48:06.957Z,32.72
2023-04-16T23:51:11.431Z,32.95
2023-04-16T23:54:15.947Z,32.80
2023-04-16T23:57:20.673Z,31.48
